createdAt,value
2018-03-02T00:00:15.040Z,32.27
2018-03-02T00:02:43.497Z,31.77
2018-03-02T00:05:11.187Z,29.63
2018-03-02T00:07:39.633Z,32.90
2018-03-02T00:10:07.385Z,34.70
2018-03-02T00:12:35.027Z,30.00
2018-03-02T00:15:02.963Z,34.40
2018-03-02T00:17:30.574Z,34.70
2018-03-02T00:19:58.227Z,34.10
2018-03-02T00:22:25.927Z,34.73
2018-03-02T00:24:53.570Z,33.43
2018-03-02T00:27:21.701Z,35.10
2018-03-02T00:29:50.122Z,32.23
2018-03-02T00:32:17.789Z,32.87
2018-03-02T00:34:45.404Z,33.40
2018-03-02T00:37:13.853Z,33.70
2018-03-02T00:39:42.240Z,34.83
2018-03-02T00:42:09.904Z,33.50
2018-03-02T00:44:37.535Z,34.83
2018-03-02T00:47:05.151Z,31.67
2018-03-02T00:49:33.097Z,32.63
2018-03-02T00:52:00.961Z,34.83
2018-03-02T00:54:29.390Z,37.07
2018-03-02T00:57:00.442Z,31.50
2018-03-02T00:59:35.465Z,32.90
2018-03-02T01:02:03.307Z,33.90
2018-03-02T01:04:31.237Z,32.30
2018-03-02T01:06:58.896Z,35.47
2018-03-02T01:09:26.525Z,31.43
2018-03-02T01:11:54.180Z,35.87
2018-03-02T01:14:22.079Z,37.13
2018-03-02T01:16:49.719Z,35.27
2018-03-02T01:19:17.402Z,35.40
2018-03-02T01:21:45.018Z,34.37
2018-03-02T01:24:12.669Z,33.83
2018-03-02T01:26:41.129Z,31.53
2018-03-02T01:29:09.652Z,34.53
2018-03-02T01:31:37.693Z,33.13
2018-03-02T01:34:07.347Z,33.47
2018-03-02T01:36:35.227Z,35.87
2018-03-02T01:39:02.860Z,38.03
2018-03-02T01:41:30.469Z,35.23
2018-03-02T01:43:58.164Z,33.97
2018-03-02T01:46:26.308Z,33.27
2018-03-02T01:48:54.621Z,35.80
2018-03-02T01:54:25.800Z,36.80
2018-03-02T01:56:53.411Z,35.93
2018-03-02T01:59:21.221Z,36.70
2018-03-02T02:01:48.888Z,36.63
2018-03-02T02:04:16.725Z,36.23
2018-03-02T02:06:44.383Z,35.37
2018-03-02T02:09:12.026Z,34.03
2018-03-02T02:11:40.537Z,34.67
2018-03-02T02:14:08.304Z,36.53
2018-03-02T02:16:35.973Z,37.27
2018-03-02T02:19:03.707Z,35.70
2018-03-02T02:21:32.131Z,37.03
2018-03-02T02:23:59.768Z,38.43
2018-03-02T02:26:27.427Z,35.13
2018-03-02T02:28:55.106Z,34.23
2018-03-02T02:31:22.745Z,34.90
2018-03-02T02:33:50.918Z,36.77
2018-03-02T02:36:18.542Z,35.90
2018-03-02T02:38:46.213Z,35.07
2018-03-02T02:41:14.595Z,36.70
2018-03-02T02:43:43.057Z,34.47
2018-03-02T02:46:10.697Z,32.23
2018-03-02T02:48:38.639Z,36.97
2018-03-02T02:51:06.453Z,36.20
2018-03-02T02:53:34.125Z,38.10
2018-03-02T02:56:01.850Z,34.83
2018-03-02T02:58:29.439Z,33.73
2018-03-02T03:00:57.159Z,36.37
2018-03-02T03:03:24.818Z,37.20
2018-03-02T03:05:52.469Z,33.87
2018-03-02T03:08:20.971Z,35.70
2018-03-02T03:10:48.620Z,31.20
2018-03-02T03:13:16.246Z,35.13
2018-03-02T03:15:44.632Z,33.20
2018-03-02T03:18:13.040Z,27.93
2018-03-02T03:20:40.648Z,33.10
2018-03-02T03:23:08.328Z,34.90
2018-03-02T03:25:36.768Z,33.57
2018-03-02T03:28:04.388Z,36.37
2018-03-02T03:30:32.167Z,33.83
2018-03-02T03:32:59.790Z,34.30
2018-03-02T03:35:28.460Z,36.00
2018-03-02T03:37:56.088Z,35.00
2018-03-02T03:40:23.705Z,34.10
2018-03-02T03:42:52.115Z,34.90
2018-03-02T03:45:19.765Z,36.43
2018-03-02T03:47:47.420Z,35.23
2018-03-02T03:50:15.052Z,35.37
2018-03-02T03:52:42.749Z,36.43
2018-03-02T03:55:10.526Z,35.03
2018-03-02T03:57:38.129Z,34.40
2018-03-02T04:00:05.747Z,32.83
2018-03-02T04:02:33.478Z,37.77
2018-03-02T04:05:02.146Z,35.10
2018-03-02T04:07:30.687Z,31.57
2018-03-02T04:09:58.380Z,34.73
2018-03-02T04:12:26.053Z,34.20
2018-03-02T04:14:54.415Z,35.70
2018-03-02T04:17:22.041Z,38.53
2018-03-02T04:19:49.686Z,37.60
2018-03-02T04:22:17.321Z,34.37
2018-03-02T04:24:45.028Z,34.90
2018-03-02T04:27:12.653Z,35.37
2018-03-02T04:29:41.140Z,35.97
2018-03-02T04:32:10.486Z,34.70
2018-03-02T04:34:38.957Z,37.30
2018-03-02T04:37:06.594Z,36.67
2018-03-02T04:39:34.197Z,36.37
2018-03-02T04:42:02.596Z,34.57
2018-03-02T04:44:30.276Z,34.43
2018-03-02T04:46:57.997Z,34.90
2018-03-02T04:49:26.067Z,37.10
2018-03-02T04:51:54.834Z,35.23
2018-03-02T04:54:22.565Z,35.67
2018-03-02T04:56:50.221Z,35.57
2018-03-02T04:59:17.889Z,37.10
2018-03-02T05:01:45.498Z,35.67
2018-03-02T05:04:13.122Z,37.40
2018-03-02T05:06:40.756Z,38.80
2018-03-02T05:09:08.374Z,32.50
2018-03-02T05:11:36.057Z,33.87
2018-03-02T05:14:04.571Z,35.50
2018-03-02T05:16:32.274Z,35.80
2018-03-02T05:19:00.526Z,37.90
2018-03-02T05:21:28.261Z,37.23
2018-03-02T05:23:55.900Z,24.33
2018-03-02T05:26:24.283Z,35.57
2018-03-02T05:28:53.721Z,34.53
2018-03-02T05:31:21.454Z,37.33
2018-03-02T05:33:49.894Z,34.13
2018-03-02T05:36:17.541Z,34.93
2018-03-02T05:38:45.257Z,39.50
2018-03-02T05:41:13.665Z,36.60
2018-03-02T05:43:41.603Z,38.07
2018-03-02T05:46:09.970Z,35.03
2018-03-02T05:48:40.085Z,39.77
2018-03-02T05:51:09.051Z,36.33
2018-03-02T05:53:37.940Z,35.37
2018-03-02T05:56:07.399Z,35.20
2018-03-02T05:58:35.090Z,34.37
2018-03-02T06:01:02.740Z,33.97
2018-03-02T06:03:32.762Z,36.83
2018-03-02T06:06:01.534Z,36.57
2018-03-02T06:08:29.307Z,33.73
2018-03-02T06:10:57.046Z,36.70
2018-03-02T06:13:24.697Z,33.77
2018-03-02T06:15:53.288Z,34.93
2018-03-02T06:18:21.951Z,37.83
2018-03-02T06:20:50.356Z,35.43
2018-03-02T06:23:18.087Z,34.43
2018-03-02T06:25:45.813Z,36.53
2018-03-02T06:28:13.555Z,37.20
2018-03-02T06:30:41.188Z,35.23
2018-03-02T06:33:09.625Z,37.80
2018-03-02T06:35:37.318Z,36.10
2018-03-02T06:38:04.937Z,33.17
2018-03-02T06:40:32.647Z,34.90
2018-03-02T06:43:01.076Z,33.70
2018-03-02T06:45:28.752Z,34.47
2018-03-02T06:47:56.502Z,35.07
2018-03-02T06:50:24.177Z,35.27
2018-03-02T06:52:51.872Z,35.33
2018-03-02T06:55:19.581Z,32.63
2018-03-02T06:57:47.211Z,32.70
2018-03-02T07:00:16.623Z,31.83
2018-03-02T07:02:44.522Z,37.00
2018-03-02T07:05:12.153Z,34.40
2018-03-02T07:07:39.826Z,35.73
2018-03-02T07:10:07.494Z,35.50
2018-03-02T07:12:35.144Z,35.67
2018-03-02T07:15:02.772Z,33.13
2018-03-02T07:17:30.395Z,35.37
2018-03-02T07:19:58.054Z,34.17
2018-03-02T07:22:25.796Z,33.37
2018-03-02T07:24:53.437Z,33.10
2018-03-02T07:27:21.138Z,33.37
2018-03-02T07:29:48.805Z,31.03
2018-03-02T07:32:16.529Z,29.83
2018-03-02T07:34:44.363Z,34.07
2018-03-02T07:37:12.009Z,32.43
2018-03-02T07:39:39.782Z,31.50
2018-03-02T07:42:08.261Z,34.07
2018-03-02T07:44:35.979Z,36.07
2018-03-02T07:47:04.373Z,33.10
2018-03-02T07:49:32.050Z,36.23
2018-03-02T07:51:59.690Z,35.20
2018-03-02T07:54:27.346Z,33.23
2018-03-02T07:56:54.978Z,33.43
2018-03-02T07:59:22.765Z,28.47
2018-03-02T08:01:50.459Z,33.27
2018-03-02T08:04:18.813Z,33.67
2018-03-02T08:06:46.422Z,32.00
2018-03-02T08:09:14.109Z,32.87
2018-03-02T08:11:41.897Z,31.17
2018-03-02T08:14:09.596Z,30.80
2018-03-02T08:16:37.334Z,33.20
2018-03-02T08:19:05.315Z,30.43
2018-03-02T08:21:33.259Z,28.87
2018-03-02T08:24:00.934Z,29.10
2018-03-02T08:26:30.255Z,32.27
2018-03-02T08:28:58.776Z,34.03
2018-03-02T08:31:26.405Z,33.40
2018-03-02T08:33:54.141Z,32.27
2018-03-02T08:36:21.780Z,31.90
2018-03-02T08:38:49.587Z,34.27
2018-03-02T08:41:17.235Z,27.53
2018-03-02T08:43:44.913Z,33.30
2018-03-02T08:46:13.348Z,33.90
2018-03-02T08:48:41.060Z,33.80
2018-03-02T08:51:08.836Z,33.50
2018-03-02T08:53:36.515Z,29.30
2018-03-02T08:56:04.915Z,32.80
2018-03-02T08:58:32.538Z,36.17
2018-03-02T09:01:00.941Z,32.40
2018-03-02T09:03:28.576Z,31.97
2018-03-02T09:05:56.238Z,31.93
2018-03-02T09:08:24.637Z,31.93
2018-03-02T09:10:52.244Z,30.83
2018-03-02T09:13:20.856Z,30.70
2018-03-02T09:15:48.497Z,32.10
2018-03-02T09:18:16.148Z,32.90
2018-03-02T09:20:43.817Z,31.97
2018-03-02T09:23:11.508Z,34.03
2018-03-02T09:25:39.149Z,31.83
2018-03-02T09:28:06.892Z,35.30
2018-03-02T09:30:34.684Z,32.63
2018-03-02T09:33:03.098Z,34.70
2018-03-02T09:35:30.735Z,33.33
2018-03-02T09:37:58.452Z,32.03
2018-03-02T09:40:26.107Z,33.17
2018-03-02T09:42:53.968Z,32.93
2018-03-02T09:45:21.586Z,33.23
2018-03-02T09:47:50.038Z,34.10
2018-03-02T09:50:17.768Z,31.10
2018-03-02T09:52:45.447Z,33.53
2018-03-02T09:55:13.296Z,33.03
2018-03-02T09:57:41.069Z,33.33
2018-03-02T10:00:08.741Z,34.23
2018-03-02T10:02:36.360Z,32.80
2018-03-02T10:05:04.738Z,34.20
2018-03-02T10:07:37.436Z,31.10
2018-03-02T10:10:05.116Z,35.93
2018-03-02T10:12:32.764Z,34.77
2018-03-02T10:15:00.401Z,34.40
2018-03-02T10:17:28.767Z,35.47
2018-03-02T10:19:57.169Z,33.03
2018-03-02T10:22:24.872Z,35.17
2018-03-02T10:24:52.848Z,32.37
2018-03-02T10:27:20.480Z,34.77
2018-03-02T10:29:48.960Z,33.93
2018-03-02T10:32:16.678Z,35.53
2018-03-02T10:34:45.105Z,34.60
2018-03-02T10:37:12.824Z,34.43
2018-03-02T10:39:41.232Z,34.57
2018-03-02T10:42:08.912Z,34.53
2018-03-02T10:44:36.533Z,33.53
2018-03-02T10:47:05.025Z,35.50
2018-03-02T10:49:32.659Z,35.43
2018-03-02T10:52:00.306Z,35.70
2018-03-02T10:54:27.978Z,37.00
2018-03-02T10:56:55.722Z,36.60
2018-03-02T10:59:24.350Z,35.20
2018-03-02T11:01:55.492Z,37.47
2018-03-02T11:04:25.764Z,36.17
2018-03-02T11:06:53.528Z,36.53
2018-03-02T11:09:21.176Z,37.97
2018-03-02T11:11:48.886Z,36.70
2018-03-02T11:14:17.292Z,37.10
2018-03-02T11:16:44.945Z,38.20
2018-03-02T11:19:12.568Z,36.67
2018-03-02T11:21:40.216Z,35.73
2018-03-02T11:24:08.157Z,36.00
2018-03-02T11:26:35.804Z,38.70
2018-03-02T11:29:03.469Z,38.70
2018-03-02T11:31:31.156Z,37.83
2018-03-02T11:33:59.445Z,38.20
2018-03-02T11:36:27.130Z,36.23
2018-03-02T11:38:54.758Z,37.20
2018-03-02T11:41:22.387Z,37.50
2018-03-02T11:43:50.103Z,37.90
2018-03-02T11:46:17.739Z,40.17
2018-03-02T11:48:45.405Z,38.33
2018-03-02T11:51:13.153Z,38.47
2018-03-02T11:53:40.815Z,38.03
2018-03-02T11:56:08.442Z,36.53
2018-03-02T11:58:36.861Z,38.00
2018-03-02T12:01:04.517Z,38.10
2018-03-02T12:03:32.164Z,36.23
2018-03-02T12:05:59.810Z,38.27
2018-03-02T12:08:27.410Z,35.07
2018-03-02T12:10:55.060Z,38.27
2018-03-02T12:13:22.734Z,37.53
2018-03-02T12:15:50.380Z,35.90
2018-03-02T12:18:18.020Z,36.67
2018-03-02T12:20:46.011Z,37.50
2018-03-02T12:23:13.778Z,36.17
2018-03-02T12:25:41.454Z,36.13
2018-03-02T12:28:09.112Z,36.63
2018-03-02T12:30:36.793Z,35.47
2018-03-02T12:33:04.440Z,35.97
2018-03-02T12:35:32.181Z,36.87
2018-03-02T12:37:59.857Z,36.30
2018-03-02T12:40:28.275Z,34.93
2018-03-02T12:42:55.938Z,36.63
2018-03-02T12:45:23.660Z,37.07
2018-03-02T12:47:51.288Z,38.37
2018-03-02T12:50:18.956Z,36.87
2018-03-02T12:52:46.626Z,37.57
2018-03-02T12:55:14.287Z,37.03
2018-03-02T12:57:41.919Z,37.20
2018-03-02T13:00:09.569Z,38.60
2018-03-02T13:02:37.238Z,38.73
2018-03-02T13:05:05.697Z,36.30
2018-03-02T13:07:33.486Z,34.33
2018-03-02T13:10:01.904Z,36.63
2018-03-02T13:12:29.527Z,35.70
2018-03-02T13:14:57.935Z,36.67
2018-03-02T13:17:25.531Z,35.67
2018-03-02T13:19:53.197Z,34.53
2018-03-02T13:22:32.618Z,36.87
2018-03-02T13:25:01.229Z,37.17
2018-03-02T13:27:40.890Z,34.83
2018-03-02T13:30:09.307Z,34.40
2018-03-02T13:32:36.961Z,37.30
2018-03-02T13:35:10.385Z,34.20
2018-03-02T13:37:38.822Z,33.33
2018-03-02T13:40:18.220Z,35.80
2018-03-02T13:42:45.927Z,35.53
2018-03-02T13:45:13.606Z,34.80
2018-03-02T13:50:52.047Z,33.90
2018-03-02T13:53:19.733Z,34.83
2018-03-02T13:55:47.513Z,34.43
2018-03-02T13:58:15.159Z,32.40
2018-03-02T14:00:42.849Z,35.43
2018-03-02T14:03:23.280Z,33.67
2018-03-02T14:05:51.101Z,35.53
2018-03-02T14:08:18.822Z,34.53
2018-03-02T14:10:46.495Z,34.83
2018-03-02T14:13:14.876Z,33.60
2018-03-02T14:15:42.576Z,35.60
2018-03-02T14:18:10.215Z,34.67
2018-03-02T14:20:38.682Z,35.53
2018-03-02T14:23:07.127Z,36.23
2018-03-02T14:25:34.797Z,33.90
2018-03-02T14:28:02.421Z,36.23
2018-03-02T14:30:30.096Z,34.17
2018-03-02T14:32:57.775Z,36.00
2018-03-02T14:35:25.436Z,36.40
2018-03-02T14:37:53.109Z,34.23
2018-03-02T14:40:20.787Z,36.57
2018-03-02T14:42:49.217Z,35.13
2018-03-02T14:45:16.928Z,33.17
2018-03-02T14:47:45.609Z,35.20
2018-03-02T14:50:14.059Z,35.90
2018-03-02T14:52:41.695Z,36.80
2018-03-02T14:55:09.305Z,36.60
2018-03-02T14:57:36.927Z,35.83
2018-03-02T15:00:04.656Z,34.23
2018-03-02T15:02:32.341Z,36.50
2018-03-02T15:05:00.074Z,40.43
2018-03-02T15:07:28.560Z,37.07
2018-03-02T15:09:56.245Z,36.03
2018-03-02T15:12:23.995Z,36.50
2018-03-02T15:14:51.673Z,38.10
2018-03-02T15:17:19.332Z,35.33
2018-03-02T15:19:46.993Z,35.37
2018-03-02T15:22:14.753Z,36.80
2018-03-02T15:24:42.386Z,39.03
2018-03-02T15:27:10.832Z,37.83
2018-03-02T15:29:40.016Z,36.83
2018-03-02T15:32:08.534Z,37.70
2018-03-02T15:34:36.191Z,35.40
2018-03-02T15:37:03.853Z,35.40
2018-03-02T15:39:31.496Z,37.57
2018-03-02T15:41:59.243Z,37.57
2018-03-02T15:44:26.897Z,40.43
2018-03-02T15:46:54.642Z,36.23
2018-03-02T15:49:22.463Z,41.07
2018-03-02T15:51:50.248Z,40.23
2018-03-02T15:54:18.637Z,38.70
2018-03-02T15:56:46.346Z,40.43
2018-03-02T15:59:14.045Z,38.83
2018-03-02T16:01:42.456Z,40.17
2018-03-02T16:04:10.134Z,39.57
2018-03-02T16:06:37.769Z,39.07
2018-03-02T16:09:05.474Z,40.97
2018-03-02T16:11:33.149Z,40.63
2018-03-02T16:14:00.801Z,52.22
2018-03-02T16:16:28.616Z,43.73
2018-03-02T16:18:56.336Z,41.73
2018-03-02T16:21:24.141Z,42.67
2018-03-02T16:23:51.875Z,41.17
2018-03-02T16:26:20.395Z,43.20
2018-03-02T16:28:48.070Z,41.33
2018-03-02T16:31:15.700Z,41.07
2018-03-02T16:33:44.688Z,42.97
2018-03-02T16:36:12.679Z,41.43
2018-03-02T16:38:40.363Z,40.57
2018-03-02T16:41:08.118Z,42.80
2018-03-02T16:43:35.791Z,42.17
2018-03-02T16:46:03.801Z,43.33
2018-03-02T16:48:32.254Z,40.90
2018-03-02T16:50:59.932Z,43.03
2018-03-02T16:53:27.631Z,41.43
2018-03-02T16:55:55.407Z,39.70
2018-03-02T16:58:23.089Z,42.03
2018-03-02T17:00:50.970Z,40.73
2018-03-02T17:03:18.998Z,40.73
2018-03-02T17:05:46.708Z,42.70
2018-03-02T17:08:14.431Z,40.73
2018-03-02T17:10:42.136Z,41.77
2018-03-02T17:13:10.374Z,41.67
2018-03-02T17:15:38.089Z,43.10
2018-03-02T17:18:05.770Z,44.33
2018-03-02T17:20:34.230Z,44.80
2018-03-02T17:23:01.943Z,43.43
2018-03-02T17:25:29.625Z,44.07
2018-03-02T17:27:57.402Z,43.83
2018-03-02T17:30:26.228Z,42.90
2018-03-02T17:32:54.125Z,46.07
2018-03-02T17:35:21.750Z,43.63
2018-03-02T17:37:50.155Z,42.93
2018-03-02T17:40:17.922Z,44.23
2018-03-02T17:42:45.633Z,43.67
2018-03-02T17:45:13.362Z,40.83
2018-03-02T17:47:41.111Z,44.57
2018-03-02T17:50:08.912Z,45.97
2018-03-02T17:52:36.821Z,44.63
2018-03-02T17:55:04.699Z,47.13
2018-03-02T17:57:33.648Z,46.00
2018-03-02T18:00:01.487Z,46.37
2018-03-02T18:02:29.158Z,42.97
2018-03-02T18:04:56.866Z,46.00
2018-03-02T18:07:24.531Z,45.20
2018-03-02T18:09:52.980Z,44.77
2018-03-02T18:12:20.664Z,46.93
2018-03-02T18:14:49.076Z,46.53
2018-03-02T18:17:16.866Z,46.40
2018-03-02T18:19:45.760Z,43.90
2018-03-02T18:22:13.798Z,45.73
2018-03-02T18:24:42.252Z,47.03
2018-03-02T18:27:10.768Z,46.50
2018-03-02T18:29:38.422Z,44.87
2018-03-02T18:32:06.141Z,45.57
2018-03-02T18:34:33.866Z,45.00
2018-03-02T18:37:01.557Z,47.83
2018-03-02T18:39:29.357Z,45.30
2018-03-02T18:41:57.403Z,46.07
2018-03-02T18:44:25.092Z,46.37
2018-03-02T18:46:52.877Z,48.70
2018-03-02T18:49:20.651Z,46.50
2018-03-02T18:51:48.434Z,47.03
2018-03-02T18:54:16.253Z,46.00
2018-03-02T18:56:44.008Z,46.37
2018-03-02T18:59:11.990Z,47.97
2018-03-02T19:01:39.688Z,48.07
2018-03-02T19:04:07.640Z,48.33
2018-03-02T19:06:35.445Z,49.03
2018-03-02T19:09:03.938Z,45.77
2018-03-02T19:11:31.873Z,48.97
2018-03-02T19:13:59.699Z,48.03
2018-03-02T19:16:27.613Z,47.07
2018-03-02T19:18:55.626Z,47.87
2018-03-02T19:21:23.425Z,47.93
2018-03-02T19:23:51.118Z,47.63
2018-03-02T19:26:18.992Z,47.53
2018-03-02T19:28:46.895Z,47.30
2018-03-02T19:31:14.735Z,47.70
2018-03-02T19:33:43.277Z,49.30
2018-03-02T19:36:11.269Z,49.43
2018-03-02T19:38:40.234Z,47.90
2018-03-02T19:41:08.122Z,50.27
2018-03-02T19:43:36.075Z,48.43
2018-03-02T19:46:04.310Z,50.40
2018-03-02T19:48:32.161Z,50.43
2018-03-02T19:50:59.871Z,50.03
2018-03-02T19:53:27.676Z,49.30
2018-03-02T19:55:56.272Z,49.73
2018-03-02T19:58:24.920Z,51.47
2018-03-02T20:00:53.483Z,50.80
2018-03-02T20:03:21.332Z,51.77
2018-03-02T20:05:49.261Z,49.97
2018-03-02T20:08:17.013Z,51.77
2018-03-02T20:10:44.688Z,51.43
2018-03-02T20:13:13.204Z,55.37
2018-03-02T20:15:41.097Z,51.47
2018-03-02T20:18:08.924Z,49.77
2018-03-02T20:20:36.879Z,50.30
2018-03-02T20:23:04.707Z,56.17
2018-03-02T20:25:32.427Z,52.33
2018-03-02T20:28:00.368Z,66.83
2018-03-02T20:30:28.868Z,72.90
2018-03-02T20:32:56.779Z,53.67
2018-03-02T20:35:24.495Z,65.03
2018-03-02T20:37:52.976Z,53.40
2018-03-02T20:40:20.778Z,54.10
2018-03-02T20:42:50.151Z,62.10
2018-03-02T20:45:18.044Z,50.13
2018-03-02T20:47:45.748Z,49.10
2018-03-02T20:50:13.896Z,50.43
2018-03-02T20:52:41.871Z,55.83
2018-03-02T20:55:09.650Z,60.07
2018-03-02T20:57:37.536Z,53.17
2018-03-02T21:00:06.373Z,50.73
2018-03-02T21:02:34.478Z,51.77
2018-03-02T21:05:02.657Z,52.33
2018-03-02T21:07:30.850Z,54.07
2018-03-02T21:09:58.850Z,53.23
2018-03-02T21:12:26.847Z,55.40
2018-03-02T21:14:54.904Z,55.60
2018-03-02T21:17:24.047Z,51.20
2018-03-02T21:19:52.860Z,53.53
2018-03-02T21:22:21.172Z,54.43
2018-03-02T21:24:49.428Z,54.57
2018-03-02T21:27:17.460Z,52.83
2018-03-02T21:29:45.535Z,53.67
2018-03-02T21:32:14.744Z,55.87
2018-03-02T21:34:42.752Z,55.30
2018-03-02T21:37:10.831Z,56.97
2018-03-02T21:39:38.677Z,53.27
2018-03-02T21:42:06.669Z,53.50
2018-03-02T21:44:35.165Z,53.60
2018-03-02T21:47:03.084Z,56.07
2018-03-02T21:49:30.876Z,55.47
2018-03-02T21:51:59.672Z,56.10
2018-03-02T21:54:27.433Z,55.27
2018-03-02T21:56:56.035Z,56.30
2018-03-02T21:59:24.754Z,58.77
2018-03-02T22:01:52.687Z,53.40
2018-03-02T22:04:20.450Z,54.77
2018-03-02T22:06:48.111Z,53.43
2018-03-02T22:09:15.819Z,55.17
2018-03-02T22:11:43.478Z,54.40
2018-03-02T22:14:11.223Z,56.20
2018-03-02T22:16:38.927Z,57.57
2018-03-02T22:19:06.607Z,57.97
2018-03-02T22:21:34.348Z,56.80
2018-03-02T22:24:02.110Z,55.77
2018-03-02T22:26:29.773Z,57.13
2018-03-02T22:28:57.458Z,59.17
2018-03-02T22:31:25.152Z,52.50
2018-03-02T22:33:53.580Z,51.47
2018-03-02T22:36:21.266Z,50.13
2018-03-02T22:38:48.886Z,50.83
2018-03-02T22:41:16.552Z,47.83
2018-03-02T22:43:44.208Z,52.60
2018-03-02T22:46:11.839Z,49.10
2018-03-02T22:48:40.305Z,51.73
2018-03-02T22:51:08.010Z,51.87
2018-03-02T22:53:35.736Z,51.27
2018-03-02T22:56:03.436Z,52.57
2018-03-02T22:58:31.096Z,55.67
2018-03-02T23:00:58.716Z,54.03
2018-03-02T23:03:27.100Z,52.07
2018-03-02T23:05:55.652Z,51.73
2018-03-02T23:08:23.456Z,53.90
2018-03-02T23:10:51.878Z,51.93
2018-03-02T23:13:19.583Z,54.53
2018-03-02T23:15:47.284Z,55.07
2018-03-02T23:18:14.919Z,55.40
2018-03-02T23:20:43.358Z,54.47
2018-03-02T23:23:11.081Z,56.87
2018-03-02T23:25:38.760Z,57.30
2018-03-02T23:28:06.532Z,56.47
2018-03-02T23:30:34.154Z,57.60
2018-03-02T23:33:02.575Z,56.33
2018-03-02T23:35:30.315Z,55.90
2018-03-02T23:37:57.993Z,60.37
2018-03-02T23:40:25.628Z,55.63
2018-03-02T23:42:53.329Z,58.27
2018-03-02T23:45:21.075Z,60.10
2018-03-02T23:47:48.783Z,59.23
2018-03-02T23:50:16.393Z,58.77
2018-03-02T23:52:44.089Z,57.30
2018-03-02T23:55:11.716Z,56.77
2018-03-02T23:57:39.339Z,57.53
